Time;durP1;ratioP1;P1;durP2;ratioP2;P2;SDS_P1;SDS_P2;PMS_P1;PMS_P2;Temp;Humidity;BMP_temperature;BMP_pressure;BME280_temperature;BME280_humidity;BME280_pressure;Samples;Min_cycle;Max_cycle;Signal;HPM_P1;HPM_P2
2022/12/06 00:01:31;;;;;;;5.13;2.90;;;;;;;4.84;100.00;101929.59;5014469;28;20073;-45
2022/12/06 00:04:03;;;;;;;5.32;3.38;;;;;;;4.84;100.00;101928.75;4988098;28;20043;-50
2022/12/06 00:06:35;;;;;;;6.22;3.00;;;;;;;4.82;100.00;101930.81;4998758;28;20478;-49
2022/12/06 00:09:03;;;;;;;3.47;2.80;;;;;;;4.84;100.00;101928.75;4994209;28;20060;-48
2022/12/06 00:11:32;;;;;;;6.30;3.10;;;;;;;4.86;100.00;101932.09;4988156;28;20496;-48
2022/12/06 00:14:03;;;;;;;6.00;3.05;;;;;;;4.87;100.00;101928.34;4978167;28;20038;-47
2022/12/06 00:16:31;;;;;;;6.80;3.20;;;;;;;4.87;100.00;101925.66;5001157;28;20121;-48
2022/12/06 00:18:59;;;;;;;5.50;3.05;;;;;;;4.86;100.00;101932.09;5003576;28;20046;-47
2022/12/06 00:21:33;;;;;;;4.97;3.13;;;;;;;4.85;100.00;101933.09;5008860;28;20046;-47
2022/12/06 00:24:04;;;;;;;6.20;3.20;;;;;;;4.86;100.00;101921.28;5008995;28;20496;-48
2022/12/06 00:26:35;;;;;;;5.13;3.17;;;;;;;4.89;100.00;101920.88;5015018;28;20057;-49
2022/12/06 00:29:04;;;;;;;5.40;2.90;;;;;;;4.94;100.00;101926.50;5009112;28;20046;-49
2022/12/06 00:31:33;;;;;;;8.32;3.40;;;;;;;4.93;100.00;101924.00;4977719;28;20655;-49
2022/12/06 00:34:01;;;;;;;7.03;3.30;;;;;;;4.91;100.00;101929.63;4986981;28;20097;-51
2022/12/06 00:36:31;;;;;;;6.25;3.60;;;;;;;4.89;100.00;101927.09;5013913;28;20117;-53
2022/12/06 00:39:01;;;;;;;6.53;3.50;;;;;;;4.90;100.00;101925.22;5014658;28;20044;-50
2022/12/06 00:41:28;;;;;;;6.65;3.60;;;;;;;4.93;100.00;101922.16;5006045;28;20121;-48
2022/12/06 00:43:56;;;;;;;5.43;3.15;;;;;;;4.96;100.00;101927.13;4997880;28;20397;-47
2022/12/06 00:46:27;;;;;;;6.65;3.58;;;;;;;5.00;100.00;101927.53;4985882;28;20042;-49
2022/12/06 00:48:56;;;;;;;7.10;3.53;;;;;;;5.03;100.00;101921.75;5011448;28;20050;-46
2022/12/06 00:51:26;;;;;;;5.30;3.28;;;;;;;5.04;100.00;101929.63;4997362;28;20042;-48
2022/12/06 00:53:54;;;;;;;6.20;3.10;;;;;;;5.04;100.00;101923.41;5006243;28;20045;-50
2022/12/06 00:56:22;;;;;;;6.70;3.58;;;;;;;5.03;100.00;101922.59;4987141;28;20140;-49
2022/12/06 00:58:49;;;;;;;6.28;3.42;;;;;;;5.04;100.00;101929.63;4977138;28;20065;-46
2022/12/06 01:01:26;;;;;;;7.65;3.85;;;;;;;5.06;100.00;101932.97;5004871;28;20049;-49
2022/12/06 01:03:57;;;;;;;7.55;3.50;;;;;;;5.07;100.00;101933.78;4982834;28;20039;-50
2022/12/06 01:06:28;;;;;;;5.78;3.10;;;;;;;5.06;100.00;101932.97;4996163;28;20038;-48
2022/12/06 01:08:57;;;;;;;6.95;3.78;;;;;;;5.07;100.00;101933.78;5009426;28;20046;-46
2022/12/06 01:11:26;;;;;;;6.05;3.63;;;;;;;5.06;100.00;101935.66;4990578;28;20096;-47
2022/12/06 01:13:54;;;;;;;6.45;3.42;;;;;;;5.06;100.00;101926.75;5013679;28;20046;-50
2022/12/06 01:16:26;;;;;;;7.53;3.80;;;;;;;5.04;100.00;101926.09;5014344;28;20068;-51
2022/12/06 01:18:56;;;;;;;7.70;3.92;;;;;;;5.04;100.00;101923.41;5010900;28;20042;-49
2022/12/06 01:21:24;;;;;;;6.00;3.53;;;;;;;5.01;100.00;101919.25;5006581;28;20042;-47
2022/12/06 01:23:53;;;;;;;6.32;3.75;;;;;;;5.02;100.00;101920.91;5013653;28;20558;-49
2022/12/06 01:26:28;;;;;;;6.68;3.40;;;;;;;5.04;100.00;101926.09;4980446;28;20050;-47
2022/12/06 01:28:57;;;;;;;6.40;3.80;;;;;;;5.03;100.00;101925.28;5013631;28;20038;-47
2022/12/06 01:31:26;;;;;;;5.20;3.50;;;;;;;5.04;100.00;101926.94;4986069;28;20049;-48
2022/12/06 01:34:02;;;;;;;6.13;3.60;;;;;;;5.06;100.00;101921.34;4958223;28;20042;-48
2022/12/06 01:36:30;;;;;;;6.45;3.50;;;;;;;5.09;100.00;101929.03;4968410;28;20043;-49
2022/12/06 01:38:59;;;;;;;5.35;3.30;;;;;;;5.09;100.00;101934.44;5003481;28;20405;-48
2022/12/06 01:41:27;;;;;;;5.93;3.60;;;;;;;5.11;100.00;101929.66;5013796;28;20515;-44
2022/12/06 01:43:56;;;;;;;8.43;3.50;;;;;;;5.11;100.00;101926.97;5008233;28;20039;-45
2022/12/06 01:46:29;;;;;;;6.18;3.67;;;;;;;5.11;100.00;101925.09;5003272;28;20053;-48
2022/12/06 01:49:07;;;;;;;5.65;3.38;;;;;;;5.11;100.00;101926.97;5013176;28;20562;-46
2022/12/06 01:51:36;;;;;;;5.47;3.50;;;;;;;5.11;100.00;101918.84;5013603;28;20046;-49
2022/12/06 01:54:06;;;;;;;6.82;3.45;;;;;;;5.10;100.00;101923.44;5013297;28;20048;-49
2022/12/06 01:56:34;;;;;;;5.65;3.58;;;;;;;5.09;100.00;101916.34;4993732;28;20046;-48
2022/12/06 01:59:02;;;;;;;7.13;3.42;;;;;;;5.09;100.00;101916.34;5007953;28;20073;-50
2022/12/06 02:01:30;;;;;;;5.43;3.30;;;;;;;5.07;100.00;101913.00;4995706;28;20512;-50
2022/12/06 02:04:00;;;;;;;6.65;3.45;;;;;;;5.08;100.00;101919.28;5004116;28;20038;-47
2022/12/06 02:06:29;;;;;;;6.57;3.40;;;;;;;5.08;100.00;101914.69;4993778;28;20042;-48
2022/12/06 02:08:58;;;;;;;5.97;3.30;;;;;;;5.10;100.00;101915.31;4989990;28;20046;-50
2022/12/06 02:11:26;;;;;;;7.22;3.92;;;;;;;5.08;100.00;101919.28;4978519;28;20047;-51
2022/12/06 02:14:03;;;;;;;5.13;3.40;;;;;;;5.04;100.00;101920.72;5013181;28;20058;-47
2022/12/06 02:17:02;;;;;;;6.93;3.42;;;;;;;5.05;100.00;101916.97;4984922;28;20089;-47
2022/12/06 02:19:40;;;;;;;6.68;3.70;;;;;;;5.07;100.00;101921.13;5004809;28;20048;-47
2022/12/06 02:22:36;;;;;;;5.75;3.35;;;;;;;5.06;100.00;101916.75;4978998;28;20469;-48
2022/12/06 02:25:16;;;;;;;6.68;3.45;;;;;;;5.07;100.00;101918.41;4998551;28;20038;-47
2022/12/06 02:28:04;;;;;;;8.32;3.30;;;;;;;5.08;100.00;101916.56;4979320;28;20113;-48
2022/12/06 02:31:07;;;;;;;5.35;3.50;;;;;;;5.08;100.00;101919.28;5006515;28;20100;-47
2022/12/06 02:34:12;;;;;;;6.85;3.50;;;;;;;5.06;100.00;101922.16;4996371;28;20119;-50
2022/12/06 02:37:31;;;;;;;4.63;3.30;;;;;;;5.06;100.00;101911.34;4997952;28;20078;-53
2022/12/06 02:40:03;;;;;;;5.68;3.58;;;;;;;5.05;100.00;101915.09;4965069;28;20053;-47
2022/12/06 02:42:40;;;;;;;5.85;3.58;;;;;;;5.06;100.00;101910.53;5007215;28;20038;-46
2022/12/06 02:45:14;;;;;;;5.63;3.60;;;;;;;5.06;100.00;101900.56;5008085;28;20049;-51
2022/12/06 02:47:43;;;;;;;6.03;3.53;;;;;;;5.07;100.00;101896.81;5001605;28;20045;-48
2022/12/06 02:50:16;;;;;;;6.05;3.42;;;;;;;5.08;100.00;101903.88;5002834;28;20061;-48
2022/12/06 02:52:47;;;;;;;4.38;3.05;;;;;;;5.08;100.00;101903.06;4995295;28;20124;-49
2022/12/06 02:55:16;;;;;;;7.50;3.50;;;;;;;5.08;100.00;101887.69;4975610;28;20046;-48
2022/12/06 02:57:46;;;;;;;4.85;3.10;;;;;;;5.10;100.00;101901.81;4979291;28;20096;-49
2022/12/06 03:00:34;;;;;;;6.40;3.47;;;;;;;5.11;100.00;101892.66;5012343;28;20042;-49
2022/12/06 03:03:45;;;;;;;5.75;3.55;;;;;;;5.12;100.00;101886.25;5010925;28;20038;-51
2022/12/06 03:06:51;;;;;;;6.70;3.40;;;;;;;5.13;100.00;101897.88;4969312;28;20058;-48
2022/12/06 03:09:28;;;;;;;6.30;3.20;;;;;;;5.13;100.00;101898.69;4929123;29;20056;-48
2022/12/06 03:12:19;;;;;;;6.18;3.40;;;;;;;5.10;100.00;101888.31;4972933;28;20119;-48
2022/12/06 03:15:05;;;;;;;7.00;3.55;;;;;;;5.11;100.00;101892.66;4974093;28;20046;-47
2022/12/06 03:17:47;;;;;;;7.60;4.07;;;;;;;5.10;100.00;101901.81;4986171;28;20038;-46
2022/12/06 03:20:41;;;;;;;5.50;3.10;;;;;;;5.09;100.00;101902.84;5006027;28;20041;-49
2022/12/06 03:23:14;;;;;;;7.65;3.50;;;;;;;5.09;100.00;101902.84;4994071;28;20049;-48
2022/12/06 03:25:43;;;;;;;6.43;3.20;;;;;;;5.08;100.00;101903.88;4968885;28;20049;-46
2022/12/06 03:28:13;;;;;;;7.80;4.15;;;;;;;5.07;100.00;101907.59;5012181;28;20042;-50
2022/12/06 03:30:43;;;;;;;6.50;3.60;;;;;;;5.09;100.00;101910.13;4994790;28;20050;-46
2022/12/06 03:33:12;;;;;;;6.97;3.83;;;;;;;5.11;100.00;101902.66;4982467;28;20069;-47
2022/12/06 03:35:40;;;;;;;6.38;3.60;;;;;;;5.13;100.00;101897.88;4976446;28;20493;-49
2022/12/06 03:38:12;;;;;;;5.32;3.55;;;;;;;5.13;100.00;101906.81;4978402;28;20042;-50
2022/12/06 03:40:44;;;;;;;7.50;3.80;;;;;;;5.13;100.00;101900.56;4978772;28;20038;-50
2022/12/06 03:43:11;;;;;;;6.95;3.80;;;;;;;5.15;100.00;101892.25;4976129;28;20050;-47
2022/12/06 03:45:47;;;;;;;6.97;3.65;;;;;;;5.15;100.00;101898.50;4987928;28;20038;-46
2022/12/06 03:48:21;;;;;;;9.48;4.03;;;;;;;5.14;100.00;101902.22;4988882;28;20045;-45
2022/12/06 03:50:56;;;;;;;8.77;3.70;;;;;;;5.12;100.00;101899.75;5003759;28;20390;-48
2022/12/06 03:53:25;;;;;;;7.80;4.00;;;;;;;5.13;100.00;101893.28;4998328;28;20049;-47
2022/12/06 03:55:52;;;;;;;7.90;4.22;;;;;;;5.13;100.00;101892.47;5006208;28;20500;-45
2022/12/06 03:58:20;;;;;;;8.85;4.43;;;;;;;5.14;100.00;101902.22;5010875;28;20459;-48
2022/12/06 04:00:48;;;;;;;9.40;4.22;;;;;;;5.15;100.00;101890.41;5014208;28;20037;-48
2022/12/06 04:03:16;;;;;;;8.50;4.53;;;;;;;5.15;100.00;101900.34;4978707;28;20045;-47
2022/12/06 04:05:43;;;;;;;9.68;4.28;;;;;;;5.15;100.00;101886.84;4983767;28;20046;-48
2022/12/06 04:08:11;;;;;;;8.15;4.57;;;;;;;5.15;100.00;101893.09;5007766;28;20041;-50
2022/12/06 04:10:39;;;;;;;9.90;4.70;;;;;;;5.15;100.00;101894.94;4981424;28;20046;-47
2022/12/06 04:13:07;;;;;;;13.32;4.55;;;;;;;5.15;100.00;101903.06;5015155;28;20459;-50
2022/12/06 04:15:37;;;;;;;7.43;4.47;;;;;;;5.13;100.00;101896.00;4970144;28;20050;-47
2022/12/06 04:18:14;;;;;;;8.68;4.72;;;;;;;5.16;100.00;101891.22;4976952;28;20042;-48
2022/12/06 04:23:39;;;;;;;9.23;4.23;;;;;;;5.18;100.00;101891.84;5015011;28;20045;-47
2022/12/06 04:26:10;;;;;;;7.97;4.38;;;;;;;5.17;100.00;101891.03;5014910;28;20069;-46
2022/12/06 04:39:43;;;;;;;10.00;4.88;;;;;;;5.18;100.00;101905.38;4979297;28;20046;-48
2022/12/06 04:44:57;;;;;;;9.70;4.05;;;;;;;5.20;100.00;101900.59;4974661;28;20065;-48
2022/12/06 04:47:24;;;;;;;11.60;4.97;;;;;;;5.18;100.00;101897.25;5002540;28;20054;-46
2022/12/06 04:49:52;;;;;;;7.35;4.30;;;;;;;5.18;100.00;101897.25;4980380;28;20064;-47
2022/12/06 04:52:20;;;;;;;8.18;4.38;;;;;;;5.19;100.00;101899.75;5007099;28;20043;-47
2022/12/06 04:54:47;;;;;;;13.52;4.90;;;;;;;5.20;100.00;101903.28;5010890;28;20056;-48
2022/12/06 04:57:16;;;;;;;9.50;4.45;;;;;;;5.18;100.00;101889.16;5014405;28;20046;-45
2022/12/06 04:59:45;;;;;;;11.43;4.50;;;;;;;5.18;100.00;101889.97;5002048;28;20042;-47
2022/12/06 05:02:14;;;;;;;10.20;4.72;;;;;;;5.19;100.00;101888.09;4988381;28;20057;-49
2022/12/06 05:04:41;;;;;;;8.60;4.00;;;;;;;5.19;100.00;101891.63;4980328;28;20042;-48
2022/12/06 05:07:10;;;;;;;9.55;4.60;;;;;;;5.20;100.00;101889.78;4994438;28;20060;-47
2022/12/06 05:09:38;;;;;;;14.63;5.00;;;;;;;5.18;100.00;101892.69;4985187;28;20042;-46
2022/12/06 05:12:06;;;;;;;13.35;4.65;;;;;;;5.17;100.00;101891.03;5012015;28;20045;-47
2022/12/06 05:14:33;;;;;;;15.13;4.88;;;;;;;5.18;100.00;101886.44;4995913;28;20049;-48
2022/12/06 05:17:01;;;;;;;10.02;4.30;;;;;;;5.18;100.00;101886.44;5006198;28;20045;-46
2022/12/06 05:19:30;;;;;;;10.27;4.05;;;;;;;5.18;100.00;101881.88;5011924;28;20050;-47
2022/12/06 05:21:57;;;;;;;8.98;4.38;;;;;;;5.16;100.00;101893.94;5009842;28;20448;-47
2022/12/06 05:24:25;;;;;;;11.50;4.55;;;;;;;5.15;100.00;101886.84;5005695;28;20100;-47
2022/12/06 05:26:52;;;;;;;9.35;4.30;;;;;;;5.13;100.00;101885.19;5008500;28;20046;-48
2022/12/06 05:29:20;;;;;;;13.23;4.45;;;;;;;5.15;100.00;101889.53;5013680;28;20046;-47
2022/12/06 05:31:48;;;;;;;13.88;4.45;;;;;;;5.13;100.00;101885.19;4992149;28;20053;-49
2022/12/06 05:34:16;;;;;;;10.70;4.13;;;;;;;5.12;100.00;101883.53;4996561;28;20046;-48
2022/12/06 05:36:44;;;;;;;11.80;4.63;;;;;;;5.13;100.00;101884.38;5005171;28;20066;-48
2022/12/06 05:39:12;;;;;;;8.60;4.00;;;;;;;5.12;100.00;101886.25;5013867;28;20050;-48
2022/12/06 05:41:40;;;;;;;7.95;3.75;;;;;;;5.13;100.00;101887.06;5000546;28;20046;-46
2022/12/06 05:44:10;;;;;;;12.70;4.43;;;;;;;5.11;100.00;101889.97;5004149;28;20034;-45
2022/12/06 05:46:38;;;;;;;10.90;4.78;;;;;;;5.10;100.00;101891.00;5013799;28;20034;-47
2022/12/06 05:49:05;;;;;;;13.32;4.03;;;;;;;5.11;100.00;101887.25;5012725;28;20034;-49
2022/12/06 05:51:33;;;;;;;9.18;3.85;;;;;;;5.11;100.00;101891.84;5007785;28;20413;-45
2022/12/06 05:54:03;;;;;;;8.57;4.00;;;;;;;5.08;100.00;101890.38;4999020;28;20038;-44
2022/12/06 05:56:32;;;;;;;8.75;4.07;;;;;;;5.08;100.00;101892.25;5010464;28;20050;-48
2022/12/06 05:58:59;;;;;;;9.88;4.18;;;;;;;5.09;100.00;101892.03;5012822;28;20045;-47
2022/12/06 06:01:27;;;;;;;9.70;4.10;;;;;;;5.09;100.00;101899.31;5012832;28;20411;-45
2022/12/06 06:03:55;;;;;;;11.30;4.40;;;;;;;5.07;100.00;101896.81;4988435;28;20046;-44
2022/12/06 06:06:22;;;;;;;10.30;4.20;;;;;;;5.06;100.00;101900.56;4990838;28;20046;-45
2022/12/06 06:08:51;;;;;;;9.95;4.57;;;;;;;5.04;100.00;101902.63;4972270;28;20053;-45
2022/12/06 06:11:19;;;;;;;10.38;3.90;;;;;;;5.05;100.00;101898.03;4988238;28;20049;-49
2022/12/06 06:13:46;;;;;;;9.15;4.13;;;;;;;5.04;100.00;101901.78;5011799;28;20038;-44
2022/12/06 06:16:14;;;;;;;11.10;4.30;;;;;;;5.05;100.00;101901.59;4964544;28;20074;-44
2022/12/06 06:18:42;;;;;;;8.57;3.65;;;;;;;5.05;100.00;101898.91;4994064;28;20117;-45
2022/12/06 06:21:09;;;;;;;9.73;4.00;;;;;;;5.06;100.00;101899.72;5005312;28;20057;-43
2022/12/06 06:23:37;;;;;;;8.00;3.85;;;;;;;5.06;100.00;101900.56;4308426;28;10001250;-45
2022/12/06 06:26:10;;;;;;;7.90;3.90;;;;;;;5.07;100.00;101896.81;4992672;28;20559;-45
2022/12/06 06:28:38;;;;;;;8.07;3.92;;;;;;;5.06;100.00;101897.03;4973804;28;20042;-44
2022/12/06 06:31:06;;;;;;;7.88;3.88;;;;;;;5.06;100.00;101900.56;4997175;28;20035;-47
2022/12/06 06:33:35;;;;;;;8.00;3.67;;;;;;;5.07;100.00;101896.81;4989284;28;20179;-46
2022/12/06 06:36:02;;;;;;;7.38;3.58;;;;;;;5.08;100.00;101903.88;4986715;28;20052;-47
2022/12/06 06:38:30;;;;;;;9.38;4.05;;;;;;;5.07;100.00;101896.81;5010453;28;20057;-46
2022/12/06 06:41:02;;;;;;;8.70;3.80;;;;;;;5.07;100.00;101906.78;4987805;28;20042;-44
2022/12/06 06:43:30;;;;;;;9.50;4.07;;;;;;;5.05;100.00;101898.91;5001880;28;20046;-46
2022/12/06 06:46:02;;;;;;;11.52;4.40;;;;;;;5.04;100.00;101899.91;5004222;28;20049;-49
2022/12/06 06:48:33;;;;;;;10.60;4.30;;;;;;;5.02;100.00;101906.56;4990157;28;20517;-47
2022/12/06 06:51:09;;;;;;;10.57;4.30;;;;;;;5.00;100.00;101895.13;5003975;28;20058;-48
2022/12/06 06:53:38;;;;;;;9.52;4.20;;;;;;;5.00;100.00;101895.97;4996544;28;20038;-49
2022/12/06 06:56:06;;;;;;;9.50;3.60;;;;;;;5.01;100.00;101892.25;4999450;28;20405;-48
2022/12/06 06:58:34;;;;;;;7.07;3.70;;;;;;;5.02;100.00;101891.19;4972171;28;20035;-45
2022/12/06 07:01:02;;;;;;;9.00;4.32;;;;;;;5.02;100.00;101888.47;5001199;28;20042;-44
2022/12/06 07:03:30;;;;;;;8.65;3.97;;;;;;;5.00;100.00;101892.44;4975197;28;20047;-50
2022/12/06 07:06:00;;;;;;;11.05;4.50;;;;;;;4.94;100.00;101891.38;4997503;28;20417;-47
2022/12/06 07:08:29;;;;;;;11.10;4.53;;;;;;;4.89;100.00;101889.31;4986876;28;20504;-45
2022/12/06 07:10:57;;;;;;;11.25;4.40;;;;;;;4.86;100.00;101889.72;5012525;28;20046;-48
2022/12/06 07:13:26;;;;;;;10.75;4.30;;;;;;;4.88;100.00;101886.78;4995724;28;20038;-50
2022/12/06 07:15:53;;;;;;;10.07;4.18;;;;;;;4.87;100.00;101890.53;4981810;28;20042;-51
2022/12/06 07:18:21;;;;;;;9.35;4.20;;;;;;;4.88;100.00;101892.19;4997685;28;20069;-45
2022/12/06 07:21:06;;;;;;;9.95;4.03;;;;;;;4.89;100.00;101889.31;4994009;28;20034;-53
2022/12/06 07:23:35;;;;;;;8.82;4.13;;;;;;;4.89;100.00;101897.41;4993648;28;20046;-45
2022/12/06 07:26:17;;;;;;;7.72;3.78;;;;;;;4.92;100.00;101893.47;4975220;28;20038;-47
2022/12/06 07:28:46;;;;;;;8.05;3.63;;;;;;;4.91;100.00;101898.03;5004003;28;20046;-46
2022/12/06 07:31:25;;;;;;;8.88;3.60;;;;;;;4.95;100.00;101892.22;4989626;28;20059;-48
2022/12/06 07:33:54;;;;;;;10.18;4.35;;;;;;;4.95;100.00;101893.03;5012865;28;20378;-44
2022/12/06 07:36:22;;;;;;;8.10;4.10;;;;;;;4.95;100.00;101892.22;4983530;28;20050;-47
2022/12/06 07:38:52;;;;;;;7.63;3.40;;;;;;;4.97;100.00;101899.06;4993446;28;20045;-48
2022/12/06 07:47:03;;;;;;;6.90;3.13;;;;;;;4.99;100.00;101897.00;4994007;28;20050;-50
2022/12/06 07:49:31;;;;;;;9.88;3.40;;;;;;;5.01;100.00;101897.63;4993901;28;20112;-48
2022/12/06 07:51:59;;;;;;;10.07;3.50;;;;;;;5.02;100.00;101909.28;4996200;28;20058;-49
2022/12/06 07:54:26;;;;;;;8.60;3.38;;;;;;;5.00;100.00;101909.47;4995483;28;20068;-45
2022/12/06 07:56:55;;;;;;;11.40;3.80;;;;;;;4.99;100.00;101906.97;5004414;28;20037;-48
2022/12/06 07:59:23;;;;;;;8.52;3.28;;;;;;;4.97;100.00;101912.56;5012590;28;20052;-46
2022/12/06 08:01:52;;;;;;;7.10;3.40;;;;;;;4.98;100.00;101910.69;4994676;28;20050;-45
2022/12/06 08:04:20;;;;;;;5.70;3.20;;;;;;;4.98;100.00;101913.41;4995517;28;20034;-49
2022/12/06 08:06:47;;;;;;;11.77;3.70;;;;;;;4.97;100.00;101917.97;4999434;28;20042;-48
2022/12/06 08:09:15;;;;;;;8.60;3.40;;;;;;;4.96;100.00;101908.22;5010654;28;20527;-49
2022/12/06 08:11:43;;;;;;;6.55;2.90;;;;;;;4.99;100.00;101915.91;5012405;28;20107;-48
2022/12/06 08:14:11;;;;;;;6.18;3.15;;;;;;;5.05;100.00;101914.25;5012053;28;20061;-48
2022/12/06 08:16:40;;;;;;;7.93;3.15;;;;;;;5.09;100.00;101915.53;4996131;28;20046;-48
2022/12/06 08:19:08;;;;;;;7.85;3.10;;;;;;;5.10;100.00;101912.63;5012038;28;20621;-50
2022/12/06 08:21:35;;;;;;;7.30;2.95;;;;;;;5.09;100.00;101910.94;4981329;28;20043;-48
2022/12/06 08:24:03;;;;;;;5.50;3.35;;;;;;;5.09;100.00;101910.94;4988101;28;20046;-50
2022/12/06 08:26:31;;;;;;;6.53;3.17;;;;;;;5.10;100.00;101917.19;5003311;28;20057;-49
2022/12/06 08:29:02;;;;;;;7.72;3.15;;;;;;;5.12;100.00;101909.69;5011539;28;20053;-50
2022/12/06 08:31:30;;;;;;;8.55;3.00;;;;;;;5.15;100.00;101908.44;4994937;28;20504;-48
2022/12/06 08:33:58;;;;;;;9.27;3.20;;;;;;;5.19;100.00;101898.91;4991879;28;20101;-47
2022/12/06 08:36:27;;;;;;;7.65;3.17;;;;;;;5.21;100.00;101913.06;5001986;28;20052;-46
2022/12/06 08:38:55;;;;;;;7.43;3.70;;;;;;;5.19;100.00;101909.72;5011748;28;20049;-45
2022/12/06 08:44:11;;;;;;;;;;;;;;;5.18;100.00;101911.59;5008760;28;20464;-46
2022/12/06 08:46:38;;;;;;;10.48;3.08;;;;;;;5.18;100.00;101919.69;4973796;28;19930;-46
2022/12/06 08:49:06;;;;;;;7.38;3.20;;;;;;;5.17;100.00;101912.66;5007102;28;20053;-47
2022/12/06 08:51:35;;;;;;;6.45;3.00;;;;;;;5.15;100.00;101916.56;5011232;28;20068;-46
2022/12/06 08:54:03;;;;;;;7.80;2.72;;;;;;;5.15;100.00;101921.97;4985017;28;20069;-46
2022/12/06 08:56:30;;;;;;;9.15;3.28;;;;;;;5.11;100.00;101924.25;5007553;28;20126;-45
2022/12/06 08:58:58;;;;;;;6.75;3.15;;;;;;;5.07;100.00;101920.28;5011575;28;20049;-46
2022/12/06 09:01:28;;;;;;;7.72;3.50;;;;;;;5.01;100.00;101935.44;5000071;28;20042;-47
2022/12/06 09:04:05;;;;;;;7.15;3.60;;;;;;;4.98;100.00;101925.06;5006776;28;20069;-48
2022/12/06 09:06:32;;;;;;;8.00;3.80;;;;;;;4.98;100.00;101926.91;4996161;28;20409;-49
2022/12/06 09:09:00;;;;;;;9.23;3.97;;;;;;;5.01;100.00;101935.44;5011240;28;20046;-48
2022/12/06 09:11:27;;;;;;;11.52;3.60;;;;;;;5.02;100.00;101926.31;5011216;28;20050;-49
2022/12/06 09:13:55;;;;;;;7.35;3.22;;;;;;;5.02;100.00;101930.88;5010368;28;20034;-47
2022/12/06 09:16:23;;;;;;;7.57;3.70;;;;;;;5.03;100.00;101938.78;5002325;28;20052;-46
2022/12/06 09:18:51;;;;;;;8.85;3.63;;;;;;;5.03;100.00;101940.66;5006465;28;20042;-47
2022/12/06 09:21:24;;;;;;;7.63;3.60;;;;;;;5.02;100.00;101937.09;5001987;28;20054;-47
2022/12/06 09:23:55;;;;;;;7.75;4.00;;;;;;;5.03;100.00;101944.19;5001398;28;20050;-45
2022/12/06 09:26:24;;;;;;;8.55;3.75;;;;;;;5.02;100.00;101939.81;5010854;28;20148;-46
2022/12/06 09:28:54;;;;;;;8.25;3.88;;;;;;;5.02;100.00;101936.28;5010625;28;20049;-45
2022/12/06 09:31:21;;;;;;;7.28;3.67;;;;;;;5.02;100.00;101934.41;5010423;28;20068;-46
2022/12/06 09:33:50;;;;;;;7.38;3.47;;;;;;;5.01;100.00;101940.84;4984005;28;20042;-47
2022/12/06 09:36:26;;;;;;;8.63;3.70;;;;;;;5.01;100.00;101940.84;4991726;28;20476;-43
2022/12/06 09:38:58;;;;;;;8.23;3.80;;;;;;;4.99;100.00;101947.50;4993045;28;20048;-48
2022/12/06 09:41:47;;;;;;;8.02;3.60;;;;;;;4.96;100.00;101948.75;5010779;28;20169;-49
2022/12/06 09:44:39;;;;;;;7.22;3.60;;;;;;;4.93;100.00;101954.56;4995453;28;20496;-44
2022/12/06 09:47:26;;;;;;;8.27;3.70;;;;;;;4.91;100.00;101943.94;5010349;28;20044;-47
2022/12/06 09:50:15;;;;;;;9.70;3.88;;;;;;;4.95;100.00;101941.66;4984185;28;20050;-46
2022/12/06 09:53:11;;;;;;;8.80;4.93;;;;;;;4.97;100.00;101936.88;4993224;28;20781;-47
2022/12/06 09:55:51;;;;;;;9.63;4.50;;;;;;;5.00;100.00;101944.56;4993239;28;20042;-47
2022/12/06 09:58:40;;;;;;;6.75;3.33;;;;;;;5.04;100.00;101934.22;5013622;28;20050;-50
2022/12/06 10:01:29;;;;;;;9.85;3.72;;;;;;;5.06;100.00;101930.28;4995785;28;20057;-46
2022/12/06 10:04:30;;;;;;;6.65;3.40;;;;;;;5.08;100.00;101940.88;4974583;28;20050;-50
2022/12/06 10:07:11;;;;;;;8.65;3.33;;;;;;;5.05;100.00;101931.31;4997693;28;20045;-48
2022/12/06 10:09:41;;;;;;;6.57;2.92;;;;;;;5.04;100.00;101931.50;4988987;28;20104;-46
2022/12/06 10:12:24;;;;;;;10.30;3.47;;;;;;;5.05;100.00;101935.88;4995852;28;20050;-46
2022/12/06 10:15:12;;;;;;;7.30;3.08;;;;;;;5.05;100.00;101925.06;4987889;28;20050;-47
2022/12/06 10:17:52;;;;;;;7.82;3.05;;;;;;;5.09;100.00;101924.44;4975357;28;20042;-47
2022/12/06 10:20:27;;;;;;;6.95;3.00;;;;;;;5.12;100.00;101932.16;5013175;28;20444;-48
2022/12/06 10:23:04;;;;;;;8.63;3.10;;;;;;;5.16;100.00;101927.16;5012182;28;20511;-48
2022/12/06 10:25:58;;;;;;;6.63;2.90;;;;;;;5.18;100.00;101929.69;5000163;28;20045;-46
2022/12/06 10:28:44;;;;;;;4.68;2.50;;;;;;;5.19;100.00;101926.75;4995824;28;20069;-45
2022/12/06 10:31:26;;;;;;;7.00;2.85;;;;;;;5.19;100.00;101920.53;4965138;28;20105;-48
2022/12/06 10:34:28;;;;;;;6.10;2.83;;;;;;;5.22;100.00;101928.22;4980854;28;20038;-46
2022/12/06 10:37:15;;;;;;;8.20;2.97;;;;;;;5.26;100.00;101930.31;4981632;28;20061;-46
2022/12/06 10:39:51;;;;;;;7.03;2.78;;;;;;;5.30;100.00;101928.03;4989232;28;20054;-45
2022/12/06 10:42:22;;;;;;;6.70;3.05;;;;;;;5.31;100.00;101921.59;4993810;28;20041;-47
2022/12/06 10:44:58;;;;;;;7.30;2.90;;;;;;;5.32;100.00;101921.38;5014670;28;20041;-47
2022/12/06 10:47:29;;;;;;;;;;;;;;;5.32;100.00;101920.56;5000188;28;20100;-46
2022/12/06 10:50:02;;;;;;;11.20;3.30;;;;;;;5.32;100.00;101915.97;4986492;28;20399;-47
2022/12/06 10:52:42;;;;;;;7.90;3.08;;;;;;;5.33;100.00;101911.41;5013947;28;20124;-48
2022/12/06 10:55:11;;;;;;;7.18;3.30;;;;;;;5.34;100.00;101913.09;4999187;28;20053;-45
2022/12/06 10:57:50;;;;;;;13.18;3.47;;;;;;;5.36;100.00;101910.16;5016553;28;20041;-50
2022/12/06 11:00:20;;;;;;;7.63;2.58;;;;;;;5.38;100.00;101910.78;5005010;28;20112;-46
2022/12/06 11:03:13;;;;;;;8.30;2.58;;;;;;;5.40;100.00;101912.25;4985595;28;20413;-47
2022/12/06 11:05:54;;;;;;;5.90;3.08;;;;;;;5.44;100.00;101915.38;4974209;28;20039;-44
2022/12/06 11:08:27;;;;;;;8.45;2.88;;;;;;;5.43;100.00;101911.81;5016635;28;20050;-46
2022/12/06 11:10:56;;;;;;;7.60;2.95;;;;;;;5.43;100.00;101909.13;4982967;28;20487;-48
2022/12/06 11:13:52;;;;;;;8.30;2.75;;;;;;;5.44;100.00;101908.09;4967095;28;20424;-47
2022/12/06 11:16:26;;;;;;;7.72;3.08;;;;;;;5.47;100.00;101913.06;5009234;28;20038;-47
2022/12/06 11:18:59;;;;;;;7.25;3.03;;;;;;;5.50;100.00;101906.44;5016500;28;20038;-45
2022/12/06 11:21:30;;;;;;;8.38;3.15;;;;;;;5.52;100.00;101907.88;4994650;28;20529;-45
2022/12/06 11:24:13;;;;;;;6.97;2.90;;;;;;;5.53;100.00;101912.25;4995051;28;20038;-44
2022/12/06 11:26:48;;;;;;;7.10;3.05;;;;;;;5.54;100.00;101910.38;5015884;28;20045;-46
2022/12/06 11:29:16;;;;;;;6.68;2.95;;;;;;;5.57;100.00;101906.44;4999599;28;20519;-45
2022/12/06 11:31:50;;;;;;;5.15;2.83;;;;;;;5.57;100.00;101901.84;4993825;28;20452;-46
2022/12/06 11:34:32;;;;;;;5.47;2.83;;;;;;;5.60;100.00;101906.00;4991151;28;20136;-48
2022/12/06 11:37:01;;;;;;;9.93;3.00;;;;;;;5.59;100.00;101898.94;4990157;28;20384;-47
2022/12/06 11:39:30;;;;;;;7.40;2.78;;;;;;;5.60;100.00;101895.19;4998660;28;20124;-47
2022/12/06 11:42:01;;;;;;;4.68;2.65;;;;;;;5.64;100.00;101896.44;4991556;28;20454;-46
2022/12/06 11:44:47;;;;;;;6.05;2.88;;;;;;;5.65;100.00;101898.09;4982523;28;20038;-47
2022/12/06 11:47:20;;;;;;;8.75;2.70;;;;;;;5.64;100.00;101897.28;4973128;28;20045;-46
2022/12/06 11:49:50;;;;;;;9.85;2.83;;;;;;;5.64;100.00;101891.88;4998792;28;20038;-45
2022/12/06 11:52:33;;;;;;;5.07;2.50;;;;;;;5.63;100.00;101892.91;5000805;28;20054;-46
2022/12/06 11:55:05;;;;;;;8.73;3.20;;;;;;;5.71;100.00;101892.69;4978448;28;20034;-46
2022/12/06 11:57:40;;;;;;;6.22;3.00;;;;;;;5.80;100.00;101884.34;5004929;28;20046;-47
2022/12/06 12:00:22;;;;;;;8.98;4.57;;;;;;;5.79;100.00;101885.41;4998003;28;20038;-47
2022/12/06 12:02:52;;;;;;;8.00;3.72;;;;;;;5.77;100.00;101891.00;5006793;28;20038;-46
2022/12/06 12:05:29;;;;;;;8.10;3.10;;;;;;;5.76;100.00;101884.78;5014225;28;20064;-44
2022/12/06 12:08:16;;;;;;;7.78;2.95;;;;;;;5.79;100.00;101874.59;4979058;28;20489;-46
2022/12/06 12:10:45;;;;;;;7.50;2.85;;;;;;;5.80;100.00;101868.13;4973246;28;20073;-44
2022/12/06 12:16:11;;;;;;;10.38;3.55;;;;;;;5.86;100.00;101870.81;5004561;28;20048;-45
2022/12/06 12:18:44;;;;;;;7.38;3.03;;;;;;;5.89;100.00;101867.72;5015336;28;20053;-43